Sioux Gateway Col. Bud Day Field
KSUX : rendu visible

Aérodrome :











RETROUVEZ-NOUS SUR...

 
LOGIN :

S'inscrire | Disclaimer

   EN    FR    IT 

 









Légende :    VFR   VFR Marginal   IFR   IFR Intensif   IFR Très Intensif
Visi : 
Plafond : 
>= 8 km
>= 3000ft
5 à 8 km
1000 à 3000 ft
1500m à 5 km
500 à 1000 ft
800 à 1500m
200 à 500 ft
< 800m
< 200 ft
Symboles :   Orages  Brouillard  Fortes neiges  Fortes précipitations  Vent > 20 kt






- Altitude de l'aérodrome : 1098 ft
- Code IATA : SUX


KSUX - Sioux Gateway Col. Bud Day Field

DERNIER METAR :
  • 241125Z AUTO 33014KT 1SM R31/4500V5000FT BR OVC002 M02/M02 A3003 RMK AO2 I1000 T10221022

METARs EXPIRÉS :
  • 241111Z AUTO 33015KT 3/4SM R31/4000V4500FT BR OVC002 M02/M02 A3003 RMK AO2 T10221022
  • 241052Z AUTO 32014KT 1SM R31/5000V5500FT BR OVC002 M02/M02 A3004 RMK AO2 SLP185 I1001 T10221022
  • 240952Z AUTO 33015KT 1 1/4SM R31/6000VP6000FT BR OVC002 M02/M02 A3004 RMK AO2 SLP185 I1001 T10221022
  • 240915Z AUTO 33013KT 2 1/2SM BR OVC004 M02/M02 A3004 RMK AO2 CIG 003V007 T10171022
  • 240852Z AUTO 33010KT 3SM BR OVC005 M02/M02 A3004 RMK AO2 SLP185 I3000 T10171022 56001

TAF KSUX
Valide du 24 à 12h jusqu'au 25 à 12h UTC


241120Z 2412/2512 33012KT 1SM BR OVC003
FM241600 33010KT 3SM BR OVC006
FM242100 32009KT 6SM BR OVC008
FM250900 32006KT P6SM BKN005
FM251100 32005KT P6SM BKN015



MET'MAP, la Météo Aéronautique d'un coup d'oeil ! - Copyright ORBIFLY Décembre 2007 - Disclaimer

ORBIFLY MET'MAP TEAM :

Programmation & Développement : Alexandra Zaïnal
Sur une idée originale de : Baudouin d'Aumeries
Assistance à la programmation : Marc-Olivier Méhu
Soutien technique & logistique : Manuel Goepfert

Contact : metmap@orbifly.com




SOURCES & CREDITS :

   NOAA       Earth
Advisory